KMGJ

Orange County Airport

Montgomery, New York, USA
METAR KMGJ 161354Z AUTO 22007KT 10SM FEW085 OVC110 M06/M09 A2999 RMK AO2 SLP161 T10611094
Observed Flight Rules
Dec-16 @ 13:54 UTC (50 minutes ago) Visual Flight Rules
Wind Visibility Clouds
220° at 7 knots 10 miles
  • Few at 8,500' AGL
  • Overcast at 11,000' AGL
Temperatures Readings
Current -6°C / 21°F
Dewpoint -9°C / 16°F
Humidity 80%
Altimeter 29.99" Hg
Pressure 1016.1 hPa
Elevation 108
METAR KMGJ 161354Z AUTO 22007KT 10SM FEW085 OVC110 M06/M09 A2999 RMK AO2 SLP161 T10611094
Observed Flight Rules
Dec-16 @ 13:54 UTC
(50 minutes ago)
VFR
Wind Visibility
220° at 7 knots 10 miles
Clouds
  • Few at 8,500' AGL
  • Overcast at 11,000' AGL
Temperature Dewpoint
-6°C / 21°F -9°C / 16°F
Humidity Altimeter Pressure
80% 29.99" Hg 1016.1 hPa